sensor_id;sensor_type;location;lat;lon;timestamp;pressure;altitude;pressure_sealevel;temperature;humidity
3206;BME280;1615;53.602;11.418;2022-11-20T00:01:18;100715.25;;;6.12;100.00
3206;BME280;1615;53.602;11.418;2022-11-20T00:03:44;100720.97;;;6.15;100.00
3206;BME280;1615;53.602;11.418;2022-11-20T00:06:12;100673.75;;;5.80;100.00
3206;BME280;1615;53.602;11.418;2022-11-20T00:08:38;100720.19;;;6.15;100.00
3206;BME280;1615;53.602;11.418;2022-11-20T00:11:05;100650.28;;;5.74;100.00
3206;BME280;1615;53.602;11.418;2022-11-20T00:13:31;100707.91;;;6.07;100.00
3206;BME280;1615;53.602;11.418;2022-11-20T00:15:59;100708.69;;;6.03;100.00
3206;BME280;1615;53.602;11.418;2022-11-20T00:18:25;100707.00;;;5.97;100.00
3206;BME280;1615;53.602;11.418;2022-11-20T00:20:51;100634.94;;;5.53;100.00
3206;BME280;1615;53.602;11.418;2022-11-20T00:23:16;100700.53;;;6.03;100.00
3206;BME280;1615;53.602;11.418;2022-11-20T00:25:42;100709.19;;;5.95;100.00
3206;BME280;1615;53.602;11.418;2022-11-20T00:28:07;100703.97;;;5.88;100.00
3206;BME280;1615;53.602;11.418;2022-11-20T00:30:32;100690.28;;;5.78;100.00
3206;BME280;1615;53.602;11.418;2022-11-20T00:32:58;100693.38;;;5.87;100.00
3206;BME280;1615;53.602;11.418;2022-11-20T00:35:23;100714.06;;;5.88;100.00
3206;BME280;1615;53.602;11.418;2022-11-20T00:37:48;100693.34;;;5.82;100.00
3206;BME280;1615;53.602;11.418;2022-11-20T00:40:14;100656.53;;;5.69;100.00
3206;BME280;1615;53.602;11.418;2022-11-20T00:42:39;100715.47;;;5.95;100.00
3206;BME280;1615;53.602;11.418;2022-11-20T00:45:05;100672.31;;;5.72;100.00
3206;BME280;1615;53.602;11.418;2022-11-20T00:47:30;100631.41;;;5.47;100.00
3206;BME280;1615;53.602;11.418;2022-11-20T00:49:55;100651.88;;;5.60;100.00
3206;BME280;1615;53.602;11.418;2022-11-20T00:52:21;100698.88;;;6.02;100.00
3206;BME280;1615;53.602;11.418;2022-11-20T00:54:46;100697.84;;;6.08;100.00
3206;BME280;1615;53.602;11.418;2022-11-20T00:57:11;100698.41;;;6.15;100.00
3206;BME280;1615;53.602;11.418;2022-11-20T00:59:37;100697.84;;;6.18;100.00
3206;BME280;1615;53.602;11.418;2022-11-20T01:02:02;100703.91;;;6.25;100.00
3206;BME280;1615;53.602;11.418;2022-11-20T01:04:27;100642.78;;;5.91;100.00
3206;BME280;1615;53.602;11.418;2022-11-20T01:06:53;100693.03;;;6.30;100.00
3206;BME280;1615;53.602;11.418;2022-11-20T01:09:18;100696.78;;;6.14;100.00
3206;BME280;1615;53.602;11.418;2022-11-20T01:11:44;100695.41;;;6.11;100.00
3206;BME280;1615;53.602;11.418;2022-11-20T01:14:12;100698.38;;;6.10;100.00
3206;BME280;1615;53.602;11.418;2022-11-20T01:16:40;100634.78;;;5.69;100.00
3206;BME280;1615;53.602;11.418;2022-11-20T01:19:16;100695.66;;;6.10;100.00
3206;BME280;1615;53.602;11.418;2022-11-20T01:21:43;100691.03;;;6.15;100.00
3206;BME280;1615;53.602;11.418;2022-11-20T01:24:14;100694.06;;;6.19;100.00
3206;BME280;1615;53.602;11.418;2022-11-20T01:26:41;100714.16;;;6.13;100.00
3206;BME280;1615;53.602;11.418;2022-11-20T01:29:10;100688.31;;;6.05;100.00
3206;BME280;1615;53.602;11.418;2022-11-20T01:31:38;100688.59;;;6.09;100.00
3206;BME280;1615;53.602;11.418;2022-11-20T01:34:06;100690.22;;;6.10;100.00
3206;BME280;1615;53.602;11.418;2022-11-20T01:36:34;100652.31;;;5.93;100.00
3206;BME280;1615;53.602;11.418;2022-11-20T01:39:06;100684.78;;;6.10;100.00
3206;BME280;1615;53.602;11.418;2022-11-20T01:41:33;100687.53;;;6.15;100.00
3206;BME280;1615;53.602;11.418;2022-11-20T01:44:21;100600.81;;;5.72;100.00
3206;BME280;1615;53.602;11.418;2022-11-20T01:47:02;100678.81;;;6.23;100.00
3206;BME280;1615;53.602;11.418;2022-11-20T01:49:32;100671.50;;;6.28;100.00
3206;BME280;1615;53.602;11.418;2022-11-20T01:52:03;100669.31;;;6.30;100.00
3206;BME280;1615;53.602;11.418;2022-11-20T01:54:36;100667.97;;;6.33;100.00
3206;BME280;1615;53.602;11.418;2022-11-20T01:57:06;100672.03;;;6.25;100.00
3206;BME280;1615;53.602;11.418;2022-11-20T01:59:35;100658.13;;;6.17;100.00
3206;BME280;1615;53.602;11.418;2022-11-20T02:02:04;100587.44;;;5.65;100.00
3206;BME280;1615;53.602;11.418;2022-11-20T02:04:29;100666.84;;;6.14;100.00
3206;BME280;1615;53.602;11.418;2022-11-20T02:07:00;100658.69;;;6.14;100.00
3206;BME280;1615;53.602;11.418;2022-11-20T02:09:26;100658.13;;;6.17;100.00
3206;BME280;1615;53.602;11.418;2022-11-20T02:11:52;100631.44;;;6.04;100.00
3206;BME280;1615;53.602;11.418;2022-11-20T02:14:17;100642.06;;;6.05;100.00
3206;BME280;1615;53.602;11.418;2022-11-20T02:16:47;100631.88;;;5.86;100.00
3206;BME280;1615;53.602;11.418;2022-11-20T02:19:23;100602.69;;;5.71;100.00
3206;BME280;1615;53.602;11.418;2022-11-20T02:22:07;100652.50;;;5.77;100.00
3206;BME280;1615;53.602;11.418;2022-11-20T02:24:36;100651.16;;;5.79;100.00
3206;BME280;1615;53.602;11.418;2022-11-20T02:27:06;100620.19;;;5.80;100.00
3206;BME280;1615;53.602;11.418;2022-11-20T02:29:36;100579.81;;;5.57;100.00
3206;BME280;1615;53.602;11.418;2022-11-20T02:32:03;100636.28;;;5.97;100.00
3206;BME280;1615;53.602;11.418;2022-11-20T02:34:29;100634.38;;;5.92;100.00
3206;BME280;1615;53.602;11.418;2022-11-20T02:36:55;100613.06;;;5.79;100.00
3206;BME280;1615;53.602;11.418;2022-11-20T02:39:23;100631.38;;;5.94;100.00
3206;BME280;1615;53.602;11.418;2022-11-20T02:41:50;100630.84;;;5.97;100.00
3206;BME280;1615;53.602;11.418;2022-11-20T02:44:17;100599.22;;;5.81;100.00
3206;BME280;1615;53.602;11.418;2022-11-20T02:46:42;100630.31;;;6.00;100.00
3206;BME280;1615;53.602;11.418;2022-11-20T02:49:07;100635.50;;;6.01;100.00
3206;BME280;1615;53.602;11.418;2022-11-20T02:51:33;100627.34;;;6.06;100.00
3206;BME280;1615;53.602;11.418;2022-11-20T02:53:58;100626.50;;;6.01;100.00
3206;BME280;1615;53.602;11.418;2022-11-20T02:56:24;100626.50;;;6.01;100.00
3206;BME280;1615;53.602;11.418;2022-11-20T02:58:49;100553.72;;;5.66;100.00
3206;BME280;1615;53.602;11.418;2022-11-20T03:01:15;100623.28;;;6.09;100.00
3206;BME280;1615;53.602;11.418;2022-11-20T03:03:40;100623.84;;;6.16;100.00
3206;BME280;1615;53.602;11.418;2022-11-20T03:06:06;100622.72;;;6.12;100.00
3206;BME280;1615;53.602;11.418;2022-11-20T03:08:31;100626.25;;;6.07;100.00
3206;BME280;1615;53.602;11.418;2022-11-20T03:11:02;100508.78;;;5.39;100.00
3206;BME280;1615;53.602;11.418;2022-11-20T03:13:27;100608.56;;;6.00;100.00
3206;BME280;1615;53.602;11.418;2022-11-20T03:15:52;100622.19;;;6.10;100.00
3206;BME280;1615;53.602;11.418;2022-11-20T03:18:18;100629.50;;;6.04;100.00
3206;BME280;1615;53.602;11.418;2022-11-20T03:20:43;100630.28;;;5.95;100.00
3206;BME280;1615;53.602;11.418;2022-11-20T03:23:08;100629.50;;;5.99;100.00
3206;BME280;1615;53.602;11.418;2022-11-20T03:25:34;100627.06;;;5.98;100.00
3206;BME280;1615;53.602;11.418;2022-11-20T03:27:59;100620.78;;;5.97;100.00
3206;BME280;1615;53.602;11.418;2022-11-20T03:30:24;100624.84;;;5.95;100.00
3206;BME280;1615;53.602;11.418;2022-11-20T03:32:53;100594.53;;;5.71;100.00
3206;BME280;1615;53.602;11.418;2022-11-20T03:35:18;100630.00;;;5.91;100.00
3206;BME280;1615;53.602;11.418;2022-11-20T03:37:44;100616.09;;;5.83;100.00
3206;BME280;1615;53.602;11.418;2022-11-20T03:40:10;100624.28;;;5.83;100.00
3206;BME280;1615;53.602;11.418;2022-11-20T03:42:36;100615.03;;;5.84;100.00
3206;BME280;1615;53.602;11.418;2022-11-20T03:45:10;100623.19;;;5.84;100.00
3206;BME280;1615;53.602;11.418;2022-11-20T03:47:36;100515.75;;;5.20;100.00
3206;BME280;1615;53.602;11.418;2022-11-20T03:50:02;100599.75;;;5.78;100.00
3206;BME280;1615;53.602;11.418;2022-11-20T03:52:28;100615.56;;;5.86;100.00
3206;BME280;1615;53.602;11.418;2022-11-20T03:54:53;100583.09;;;5.64;100.00
3206;BME280;1615;53.602;11.418;2022-11-20T03:57:18;100612.78;;;5.76;100.00
3206;BME280;1615;53.602;11.418;2022-11-20T03:59:44;100605.25;;;5.88;100.00
3206;BME280;1615;53.602;11.418;2022-11-20T04:02:09;100598.97;;;5.87;100.00
3206;BME280;1615;53.602;11.418;2022-11-20T04:04:34;100557.19;;;5.52;100.00
3206;BME280;1615;53.602;11.418;2022-11-20T04:07:00;100604.16;;;5.89;100.00
3206;BME280;1615;53.602;11.418;2022-11-20T04:09:25;100604.97;;;5.94;100.00
3206;BME280;1615;53.602;11.418;2022-11-20T04:11:50;100599.25;;;5.91;100.00
3206;BME280;1615;53.602;11.418;2022-11-20T04:14:16;100492.16;;;5.25;100.00
3206;BME280;1615;53.602;11.418;2022-11-20T04:16:42;100535.47;;;5.52;100.00
3206;BME280;1615;53.602;11.418;2022-11-20T04:19:15;100601.16;;;5.85;100.00
3206;BME280;1615;53.602;11.418;2022-11-20T04:21:42;100531.59;;;5.43;100.00
3206;BME280;1615;53.602;11.418;2022-11-20T04:24:08;100591.66;;;5.93;100.00
3206;BME280;1615;53.602;11.418;2022-11-20T04:26:35;100536.31;;;5.57;100.00
3206;BME280;1615;53.602;11.418;2022-11-20T04:29:01;100588.94;;;5.88;100.00
3206;BME280;1615;53.602;11.418;2022-11-20T04:31:32;100588.59;;;5.79;100.00
3206;BME280;1615;53.602;11.418;2022-11-20T04:34:02;100579.59;;;5.79;100.00
3206;BME280;1615;53.602;11.418;2022-11-20T04:36:29;100568.94;;;5.67;100.00
3206;BME280;1615;53.602;11.418;2022-11-20T04:39:01;100512.53;;;5.28;100.00
3206;BME280;1615;53.602;11.418;2022-11-20T04:41:32;100586.72;;;5.80;100.00
3206;BME280;1615;53.602;11.418;2022-11-20T04:44:00;100582.91;;;5.81;100.00
3206;BME280;1615;53.602;11.418;2022-11-20T04:46:29;100576.41;;;5.87;100.00
3206;BME280;1615;53.602;11.418;2022-11-20T04:48:55;100573.72;;;5.92;100.00
3206;BME280;1615;53.602;11.418;2022-11-20T04:51:20;100590.56;;;5.89;100.00
3206;BME280;1615;53.602;11.418;2022-11-20T04:53:46;100579.66;;;5.84;100.00
3206;BME280;1615;53.602;11.418;2022-11-20T04:56:12;100571.22;;;5.80;100.00
3206;BME280;1615;53.602;11.418;2022-11-20T04:58:38;100573.13;;;5.80;100.00
3206;BME280;1615;53.602;11.418;2022-11-20T05:01:15;100545.31;;;5.68;100.00
3206;BME280;1615;53.602;11.418;2022-11-20T05:03:41;100557.81;;;5.69;100.00
3206;BME280;1615;53.602;11.418;2022-11-20T05:06:09;100563.41;;;5.42;100.00
3206;BME280;1615;53.602;11.418;2022-11-20T05:08:34;100569.47;;;5.59;100.00
3206;BME280;1615;53.602;11.418;2022-11-20T05:11:02;100507.91;;;5.28;100.00
3206;BME280;1615;53.602;11.418;2022-11-20T05:13:27;100510.38;;;5.35;100.00
3206;BME280;1615;53.602;11.418;2022-11-20T05:15:52;100520.41;;;5.29;100.00
3206;BME280;1615;53.602;11.418;2022-11-20T05:18:18;100566.53;;;5.71;100.00
3206;BME280;1615;53.602;11.418;2022-11-20T05:20:43;100567.09;;;5.73;100.00
3206;BME280;1615;53.602;11.418;2022-11-20T05:23:08;100557.81;;;5.69;100.00
3206;BME280;1615;53.602;11.418;2022-11-20T05:25:34;100540.38;;;5.55;100.00
3206;BME280;1615;53.602;11.418;2022-11-20T05:27:59;100575.75;;;5.70;100.00
3206;BME280;1615;53.602;11.418;2022-11-20T05:30:24;100565.72;;;5.70;100.00
3206;BME280;1615;53.602;11.418;2022-11-20T05:32:50;100559.44;;;5.60;100.00
3206;BME280;1615;53.602;11.418;2022-11-20T05:35:15;100560.47;;;5.54;100.00
3206;BME280;1615;53.602;11.418;2022-11-20T05:37:40;100557.97;;;5.42;100.00
3206;BME280;1615;53.602;11.418;2022-11-20T05:40:06;100550.91;;;5.41;100.00
3206;BME280;1615;53.602;11.418;2022-11-20T05:42:32;100493.91;;;5.00;100.00
3206;BME280;1615;53.602;11.418;2022-11-20T05:45:02;100546.81;;;5.34;100.00
3206;BME280;1615;53.602;11.418;2022-11-20T05:47:32;100559.03;;;5.36;100.00
3206;BME280;1615;53.602;11.418;2022-11-20T05:49:57;100521.75;;;5.27;100.00
3206;BME280;1615;53.602;11.418;2022-11-20T05:52:23;100533.50;;;5.37;100.00
3206;BME280;1615;53.602;11.418;2022-11-20T05:54:48;100539.16;;;5.31;100.00
3206;BME280;1615;53.602;11.418;2022-11-20T05:57:13;100541.34;;;5.29;100.00
3206;BME280;1615;53.602;11.418;2022-11-20T05:59:39;100533.38;;;5.17;100.00
3206;BME280;1615;53.602;11.418;2022-11-20T06:02:04;100545.03;;;5.08;100.00
3206;BME280;1615;53.602;11.418;2022-11-20T06:04:29;100531.91;;;5.00;100.00
3206;BME280;1615;53.602;11.418;2022-11-20T06:06:54;100531.91;;;5.00;100.00
3206;BME280;1615;53.602;11.418;2022-11-20T06:09:20;100528.16;;;5.06;100.00
3206;BME280;1615;53.602;11.418;2022-11-20T06:11:45;100530.91;;;5.11;100.00
3206;BME280;1615;53.602;11.418;2022-11-20T06:14:11;100497.91;;;4.87;100.00
3206;BME280;1615;53.602;11.418;2022-11-20T06:16:36;100515.13;;;5.03;100.00
3206;BME280;1615;53.602;11.418;2022-11-20T06:19:02;100524.41;;;5.12;100.00
3206;BME280;1615;53.602;11.418;2022-11-20T06:21:27;100506.38;;;5.01;100.00
3206;BME280;1615;53.602;11.418;2022-11-20T06:23:52;100470.41;;;4.79;100.00
3206;BME280;1615;53.602;11.418;2022-11-20T06:26:24;100524.69;;;5.15;100.00
3206;BME280;1615;53.602;11.418;2022-11-20T06:28:50;100530.91;;;5.11;100.00
3206;BME280;1615;53.602;11.418;2022-11-20T06:31:18;100527.59;;;5.04;100.00
3206;BME280;1615;53.602;11.418;2022-11-20T06:33:44;100522.19;;;5.04;100.00
3206;BME280;1615;53.602;11.418;2022-11-20T06:36:12;100484.56;;;4.81;100.00
3206;BME280;1615;53.602;11.418;2022-11-20T06:38:38;100525.22;;;5.12;100.00
3206;BME280;1615;53.602;11.418;2022-11-20T06:41:05;100502.88;;;5.00;100.00
3206;BME280;1615;53.602;11.418;2022-11-20T06:43:30;100518.47;;;5.20;100.00
3206;BME280;1615;53.602;11.418;2022-11-20T06:45:57;100521.19;;;5.25;100.00
3206;BME280;1615;53.602;11.418;2022-11-20T06:48:25;100149.88;;;3.06;100.00
3206;BME280;1615;53.602;11.418;2022-11-20T06:50:50;100521.78;;;5.32;100.00
3206;BME280;1615;53.602;11.418;2022-11-20T06:53:16;100523.97;;;5.35;100.00
3206;BME280;1615;53.602;11.418;2022-11-20T06:55:42;100427.81;;;4.79;100.00
3206;BME280;1615;53.602;11.418;2022-11-20T06:58:09;100522.34;;;5.34;100.00
3206;BME280;1615;53.602;11.418;2022-11-20T07:00:34;100516.84;;;5.24;100.00
3206;BME280;1615;53.602;11.418;2022-11-20T07:03:03;100528.25;;;5.21;100.00
3206;BME280;1615;53.602;11.418;2022-11-20T07:05:29;100514.31;;;5.07;100.00
3206;BME280;1615;53.602;11.418;2022-11-20T07:07:56;100520.59;;;5.13;100.00
3206;BME280;1615;53.602;11.418;2022-11-20T07:10:21;100509.78;;;5.23;100.00
3206;BME280;1615;53.602;11.418;2022-11-20T07:12:51;100511.94;;;5.21;100.00
3206;BME280;1615;53.602;11.418;2022-11-20T07:15:17;100507.03;;;5.18;100.00
3206;BME280;1615;53.602;11.418;2022-11-20T07:17:42;100509.19;;;5.16;100.00
3206;BME280;1615;53.602;11.418;2022-11-20T07:20:08;100516.28;;;5.22;100.00
3206;BME280;1615;53.602;11.418;2022-11-20T07:22:33;100471.66;;;5.03;100.00
3206;BME280;1615;53.602;11.418;2022-11-20T07:24:59;100508.72;;;5.29;100.00
3206;BME280;1615;53.602;11.418;2022-11-20T07:27:24;100485.59;;;5.21;100.00
3206;BME280;1615;53.602;11.418;2022-11-20T07:29:50;100482.63;;;5.23;100.00
3206;BME280;1615;53.602;11.418;2022-11-20T07:32:15;100498.44;;;5.36;100.00
3206;BME280;1615;53.602;11.418;2022-11-20T07:34:44;100502.00;;;5.41;100.00
3206;BME280;1615;53.602;11.418;2022-11-20T07:37:09;100508.22;;;5.42;100.00
3206;BME280;1615;53.602;11.418;2022-11-20T07:39:35;100505.50;;;5.37;100.00
3206;BME280;1615;53.602;11.418;2022-11-20T07:42:00;100497.34;;;5.37;100.00
3206;BME280;1615;53.602;11.418;2022-11-20T07:44:25;100496.78;;;5.35;100.00
3206;BME280;1615;53.602;11.418;2022-11-20T07:46:51;100504.13;;;5.39;100.00
3206;BME280;1615;53.602;11.418;2022-11-20T07:49:16;100496.81;;;5.40;100.00
3206;BME280;1615;53.602;11.418;2022-11-20T07:51:41;100444.78;;;5.06;100.00
3206;BME280;1615;53.602;11.418;2022-11-20T07:54:07;100434.19;;;5.10;100.00
3206;BME280;1615;53.602;11.418;2022-11-20T07:56:32;100503.38;;;5.59;100.00
3206;BME280;1615;53.602;11.418;2022-11-20T07:58:57;100498.50;;;5.56;100.00
3206;BME280;1615;53.602;11.418;2022-11-20T08:01:22;100454.63;;;5.27;100.00
3206;BME280;1615;53.602;11.418;2022-11-20T08:03:48;100502.28;;;5.45;100.00
3206;BME280;1615;53.602;11.418;2022-11-20T08:06:13;100492.44;;;5.34;100.00
3206;BME280;1615;53.602;11.418;2022-11-20T08:08:39;100431.97;;;4.97;100.00
3206;BME280;1615;53.602;11.418;2022-11-20T08:11:05;100478.78;;;5.14;100.00
3206;BME280;1615;53.602;11.418;2022-11-20T08:13:49;100498.44;;;5.36;100.00
3206;BME280;1615;53.602;11.418;2022-11-20T08:16:33;100476.69;;;5.36;100.00
3206;BME280;1615;53.602;11.418;2022-11-20T08:18:58;100492.47;;;5.39;100.00
3206;BME280;1615;53.602;11.418;2022-11-20T08:21:24;100469.28;;;5.21;100.00
3206;BME280;1615;53.602;11.418;2022-11-20T08:23:49;100438.13;;;4.82;100.00
3206;BME280;1615;53.602;11.418;2022-11-20T08:26:15;100413.97;;;4.81;100.00
3206;BME280;1615;53.602;11.418;2022-11-20T08:28:41;100497.56;;;5.30;100.00
3206;BME280;1615;53.602;11.418;2022-11-20T08:31:06;100497.56;;;5.25;100.00
3206;BME280;1615;53.602;11.418;2022-11-20T08:33:31;100493.50;;;5.28;100.00
3206;BME280;1615;53.602;11.418;2022-11-20T08:36:04;100446.13;;;5.04;100.00
3206;BME280;1615;53.602;11.418;2022-11-20T08:38:31;100497.34;;;5.42;100.00
3206;BME280;1615;53.602;11.418;2022-11-20T08:41:00;100496.56;;;5.41;100.00
3206;BME280;1615;53.602;11.418;2022-11-20T08:43:45;100495.22;;;5.44;100.00
3206;BME280;1615;53.602;11.418;2022-11-20T08:46:10;100492.50;;;5.44;100.00
3206;BME280;1615;53.602;11.418;2022-11-20T08:48:35;100493.28;;;5.44;100.00
3206;BME280;1615;53.602;11.418;2022-11-20T08:51:01;100442.06;;;5.11;100.00
3206;BME280;1615;53.602;11.418;2022-11-20T08:53:27;100490.81;;;5.43;100.00
3206;BME280;1615;53.602;11.418;2022-11-20T08:55:52;100499.50;;;5.30;100.00
3206;BME280;1615;53.602;11.418;2022-11-20T08:58:18;100400.88;;;4.73;100.00
3206;BME280;1615;53.602;11.418;2022-11-20T09:00:43;100462.19;;;5.10;100.00
3206;BME280;1615;53.602;11.418;2022-11-20T09:03:08;100502.22;;;5.35;100.00
3206;BME280;1615;53.602;11.418;2022-11-20T09:05:34;100549.22;;;5.35;100.00
3206;BME280;1615;53.602;11.418;2022-11-20T09:07:59;100494.94;;;5.50;100.00
3206;BME280;1615;53.602;11.418;2022-11-20T09:10:26;100466.34;;;5.38;100.00
3206;BME280;1615;53.602;11.418;2022-11-20T09:12:52;100492.50;;;5.54;100.00
3206;BME280;1615;53.602;11.418;2022-11-20T09:15:18;100489.00;;;5.63;100.00
3206;BME280;1615;53.602;11.418;2022-11-20T09:17:54;100467.75;;;5.50;100.00
3206;BME280;1615;53.602;11.418;2022-11-20T09:20:20;100490.38;;;5.61;100.00
3206;BME280;1615;53.602;11.418;2022-11-20T09:22:45;100472.44;;;5.60;100.00
3206;BME280;1615;53.602;11.418;2022-11-20T09:25:10;100486.66;;;5.82;100.00
3206;BME280;1615;53.602;11.418;2022-11-20T09:27:36;100489.91;;;5.89;100.00
3206;BME280;1615;53.602;11.418;2022-11-20T09:30:02;100489.66;;;5.90;100.00
3206;BME280;1615;53.602;11.418;2022-11-20T09:32:27;100509.50;;;5.91;100.00
3206;BME280;1615;53.602;11.418;2022-11-20T09:34:53;100498.63;;;6.01;100.00
3206;BME280;1615;53.602;11.418;2022-11-20T09:37:18;100495.91;;;6.01;100.00
3206;BME280;1615;53.602;11.418;2022-11-20T09:39:43;100488.28;;;5.93;100.00
3206;BME280;1615;53.602;11.418;2022-11-20T09:53:12;100495.09;;;5.85;100.00
3206;BME280;1615;53.602;11.418;2022-11-20T09:55:39;100426.16;;;5.45;100.00
3206;BME280;1615;53.602;11.418;2022-11-20T09:58:17;100487.19;;;5.89;100.00
3206;BME280;1615;53.602;11.418;2022-11-20T10:00:48;100039.75;;;3.21;100.00
3206;BME280;1615;53.602;11.418;2022-11-20T10:03:17;100481.53;;;6.05;100.00
3206;BME280;1615;53.602;11.418;2022-11-20T10:05:52;100476.88;;;6.16;100.00
3206;BME280;1615;53.602;11.418;2022-11-20T10:08:28;100415.94;;;5.87;100.00
3206;BME280;1615;53.602;11.418;2022-11-20T10:13:52;100476.34;;;6.19;100.00
3206;BME280;1615;53.602;11.418;2022-11-20T10:19:13;100482.88;;;6.33;100.00
3206;BME280;1615;53.602;11.418;2022-11-20T10:27:38;100483.97;;;6.27;100.00
3206;BME280;1615;53.602;11.418;2022-11-20T10:30:14;100480.69;;;6.50;100.00
3206;BME280;1615;53.602;11.418;2022-11-20T10:33:34;100466.28;;;6.49;100.00
3206;BME280;1615;53.602;11.418;2022-11-20T10:35:49;100468.16;;;6.54;100.00
3206;BME280;1615;53.602;11.418;2022-11-20T10:38:21;100469.78;;;6.55;100.00
3206;BME280;1615;53.602;11.418;2022-11-20T10:40:55;100470.06;;;6.58;100.00
3206;BME280;1615;53.602;11.418;2022-11-20T10:43:46;100471.44;;;6.51;100.00
3206;BME280;1615;53.602;11.418;2022-11-20T10:46:18;100429.53;;;6.17;100.00
3206;BME280;1615;53.602;11.418;2022-11-20T10:48:45;100464.91;;;6.32;100.00
3206;BME280;1615;53.602;11.418;2022-11-20T10:51:18;100475.28;;;6.25;100.00
3206;BME280;1615;53.602;11.418;2022-11-20T10:53:57;100469.25;;;6.18;100.00
3206;BME280;1615;53.602;11.418;2022-11-20T10:59:03;100463.03;;;6.27;100.00
3206;BME280;1615;53.602;11.418;2022-11-20T11:01:29;100473.63;;;6.34;100.00
3206;BME280;1615;53.602;11.418;2022-11-20T11:03:55;100420.84;;;6.10;100.00
3206;BME280;1615;53.602;11.418;2022-11-20T11:08:53;100463.81;;;6.38;100.00
3206;BME280;1615;53.602;11.418;2022-11-20T11:11:23;100458.94;;;6.35;100.00
3206;BME280;1615;53.602;11.418;2022-11-20T11:13:49;100392.25;;;5.87;100.00
3206;BME280;1615;53.602;11.418;2022-11-20T11:16:26;100472.50;;;6.45;100.00
3206;BME280;1615;53.602;11.418;2022-11-20T11:19:02;100467.38;;;6.53;100.00
3206;BME280;1615;53.602;11.418;2022-11-20T11:21:28;100457.25;;;6.64;100.00
3206;BME280;1615;53.602;11.418;2022-11-20T11:24:01;100453.41;;;6.75;100.00
3206;BME280;1615;53.602;11.418;2022-11-20T11:26:27;100388.19;;;6.20;100.00
3206;BME280;1615;53.602;11.418;2022-11-20T11:29:01;100446.38;;;6.64;100.00
3206;BME280;1615;53.602;11.418;2022-11-20T11:31:33;100442.00;;;6.68;100.00
3206;BME280;1615;53.602;11.418;2022-11-20T11:36:32;100375.88;;;6.47;100.00
3206;BME280;1615;53.602;11.418;2022-11-20T11:39:02;100416.91;;;6.76;100.00
3206;BME280;1615;53.602;11.418;2022-11-20T11:41:31;100405.22;;;6.70;100.00
3206;BME280;1615;53.602;11.418;2022-11-20T11:44:19;100441.13;;;6.87;100.00
3206;BME280;1615;53.602;11.418;2022-11-20T11:47:05;100435.09;;;6.95;100.00
3206;BME280;1615;53.602;11.418;2022-11-20T11:49:33;100438.91;;;6.99;100.00
3206;BME280;1615;53.602;11.418;2022-11-20T11:52:08;100431.59;;;6.85;100.00
3206;BME280;1615;53.602;11.418;2022-11-20T11:54:54;100429.97;;;6.84;100.00
3206;BME280;1615;53.602;11.418;2022-11-20T11:57:26;100432.13;;;6.92;100.00
3206;BME280;1615;53.602;11.418;2022-11-20T11:59:58;100435.19;;;6.70;100.00
3206;BME280;1615;53.602;11.418;2022-11-20T12:02:34;100432.75;;;6.59;100.00
3206;BME280;1615;53.602;11.418;2022-11-20T12:08:09;100422.91;;;6.83;100.00
3206;BME280;1615;53.602;11.418;2022-11-20T12:13:20;100375.31;;;6.50;100.00
3206;BME280;1615;53.602;11.418;2022-11-20T12:15:48;100374.69;;;6.73;100.00
3206;BME280;1615;53.602;11.418;2022-11-20T12:18:16;100367.38;;;6.69;100.00
3206;BME280;1615;53.602;11.418;2022-11-20T12:20:53;100422.53;;;7.09;100.00
3206;BME280;1615;53.602;11.418;2022-11-20T12:23:28;100410.59;;;6.95;100.00
3206;BME280;1615;53.602;11.418;2022-11-20T12:26:10;100414.13;;;7.01;100.00
3206;BME280;1615;53.602;11.418;2022-11-20T12:28:59;100406.47;;;7.03;100.00
3206;BME280;1615;53.602;11.418;2022-11-20T12:37:19;100398.38;;;6.83;100.00
3206;BME280;1615;53.602;11.418;2022-11-20T12:39:50;100387.00;;;6.61;100.00
3206;BME280;1615;53.602;11.418;2022-11-20T12:56:46;100253.78;;;6.01;100.00
3206;BME280;1615;53.602;11.418;2022-11-20T13:02:30;100271.72;;;6.12;100.00
3206;BME280;1615;53.602;11.418;2022-11-20T13:07:44;100381.44;;;6.91;100.00
3206;BME280;1615;53.602;11.418;2022-11-20T13:10:38;100377.34;;;6.93;100.00
3206;BME280;1615;53.602;11.418;2022-11-20T13:13:23;100383.28;;;7.05;100.00
3206;BME280;1615;53.602;11.418;2022-11-20T13:18:16;100384.13;;;7.01;100.00
3206;BME280;1615;53.602;11.418;2022-11-20T13:20:44;100385.25;;;7.00;100.00
3206;BME280;1615;53.602;11.418;2022-11-20T13:23:10;100382.03;;;6.88;100.00
3206;BME280;1615;53.602;11.418;2022-11-20T13:25:38;100378.75;;;6.86;100.00
3206;BME280;1615;53.602;11.418;2022-11-20T13:30:36;100367.94;;;6.61;100.00
3206;BME280;1615;53.602;11.418;2022-11-20T13:33:06;100366.88;;;6.62;100.00
3206;BME280;1615;53.602;11.418;2022-11-20T13:35:41;99937.84;;;4.02;100.00
3206;BME280;1615;53.602;11.418;2022-11-20T13:38:10;100373.31;;;6.76;100.00
3206;BME280;1615;53.602;11.418;2022-11-20T13:43:23;100346.47;;;6.54;100.00
3206;BME280;1615;53.602;11.418;2022-11-20T13:45:57;100370.38;;;6.67;100.00
3206;BME280;1615;53.602;11.418;2022-11-20T13:48:25;100365.75;;;6.68;100.00
3206;BME280;1615;53.602;11.418;2022-11-20T13:53:27;100360.59;;;6.61;100.00
3206;BME280;1615;53.602;11.418;2022-11-20T14:01:29;100360.34;;;6.53;100.00
3206;BME280;1615;53.602;11.418;2022-11-20T14:03:59;100357.09;;;6.46;100.00
3206;BME280;1615;53.602;11.418;2022-11-20T14:06:31;100359.28;;;6.34;100.00
3206;BME280;1615;53.602;11.418;2022-11-20T14:08:58;100358.78;;;6.22;100.00
3206;BME280;1615;53.602;11.418;2022-11-20T14:11:29;100356.06;;;6.12;100.00
3206;BME280;1615;53.602;11.418;2022-11-20T14:13:58;100359.09;;;6.05;100.00
3206;BME280;1615;53.602;11.418;2022-11-20T14:16:26;100360.97;;;6.05;100.00
3206;BME280;1615;53.602;11.418;2022-11-20T14:18:52;100366.94;;;6.02;100.00
3206;BME280;1615;53.602;11.418;2022-11-20T14:21:26;100361.25;;;5.98;100.00
3206;BME280;1615;53.602;11.418;2022-11-20T14:23:53;100363.16;;;5.83;100.00